createdAt,value
2018-09-18T00:02:05.569Z,101128.03
2018-09-18T00:04:34.360Z,101128.88
2018-09-18T00:07:03.066Z,101118.33
2018-09-18T00:09:32.016Z,101120.10
2018-09-18T00:12:00.848Z,101118.36
2018-09-18T00:14:29.474Z,101105.67
2018-09-18T00:16:58.363Z,101109.62
2018-09-18T00:19:26.922Z,101115.38
2018-09-18T00:21:55.547Z,101110.55
2018-09-18T00:24:24.336Z,101120.99
2018-09-18T00:26:52.862Z,101118.29
2018-09-18T00:29:21.334Z,101111.25
2018-09-18T00:31:50.188Z,100995.22
2018-09-18T00:34:18.622Z,101104.67
2018-09-18T00:36:47.111Z,101098.09
2018-09-18T00:39:15.649Z,101096.82
2018-09-18T00:41:44.087Z,101099.03
2018-09-18T00:44:12.563Z,101116.97
2018-09-18T00:46:41.843Z,101109.94
2018-09-18T00:49:10.281Z,101119.14
2018-09-18T00:51:39.785Z,101120.88
2018-09-18T00:54:08.969Z,101117.83
2018-09-18T00:56:37.710Z,101111.17
2018-09-18T00:59:06.175Z,101116.05
2018-09-18T01:01:34.721Z,100984.94
2018-09-18T01:04:03.204Z,101123.47
2018-09-18T01:06:32.320Z,101127.41
2018-09-18T01:09:01.069Z,101122.97
2018-09-18T01:11:29.784Z,101114.11
2018-09-18T01:13:58.684Z,101105.22
2018-09-18T01:16:27.360Z,101113.57
2018-09-18T01:18:55.861Z,101111.72
2018-09-18T01:21:24.378Z,101110.87
2018-09-18T01:23:53.094Z,101116.05
2018-09-18T01:26:21.653Z,101114.69
2018-09-18T01:28:50.152Z,101111.56
2018-09-18T01:31:18.659Z,101117.67
2018-09-18T01:33:47.358Z,101121.61
2018-09-18T01:36:15.923Z,101126.88
2018-09-18T01:38:44.665Z,101125.56
2018-09-18T01:41:13.105Z,101132.94
2018-09-18T01:43:41.625Z,101136.84
2018-09-18T01:46:10.350Z,101141.17
2018-09-18T01:48:39.042Z,101138.46
2018-09-18T01:51:07.863Z,101142.79
2018-09-18T01:53:36.793Z,101141.44
2018-09-18T01:56:05.529Z,101150.63
2018-09-18T01:58:33.984Z,101149.31
2018-09-18T02:01:02.765Z,101152.84
2018-09-18T02:03:31.278Z,101154.62
2018-09-18T02:05:59.760Z,101154.62
2018-09-18T02:08:28.566Z,101158.17
2018-09-18T02:10:57.070Z,101154.66
2018-09-18T02:13:25.531Z,101148.09
2018-09-18T02:15:54.861Z,101144.61
2018-09-18T02:18:23.401Z,101145.45
2018-09-18T02:20:51.857Z,101143.25
2018-09-18T02:23:20.718Z,101141.55
2018-09-18T02:25:49.158Z,101141.63
2018-09-18T02:28:17.725Z,101147.36
2018-09-18T02:30:46.466Z,101141.67
2018-09-18T02:33:14.895Z,101133.33
2018-09-18T02:35:43.358Z,101131.16
2018-09-18T02:38:11.917Z,101128.53
2018-09-18T02:40:40.381Z,101125.52
2018-09-18T02:43:08.857Z,101129.08
2018-09-18T02:45:38.269Z,101125.56
2018-09-18T02:48:06.743Z,101129.50
2018-09-18T02:50:35.370Z,101122.04
2018-09-18T02:53:04.221Z,101115.04
2018-09-18T02:55:32.702Z,101136.08
2018-09-18T02:58:01.235Z,101137.39
2018-09-18T03:00:30.596Z,101112.80
2018-09-18T03:02:59.081Z,101085.73
2018-09-18T03:05:27.553Z,101118.48
2018-09-18T03:07:56.113Z,101122.00
2018-09-18T03:10:24.566Z,101118.05
2018-09-18T03:12:53.117Z,101105.76
2018-09-18T03:15:21.738Z,101091.80
2018-09-18T03:17:50.306Z,101092.73
2018-09-18T03:20:18.773Z,101101.51
2018-09-18T03:22:47.378Z,101097.56
2018-09-18T03:25:16.050Z,101093.20
2018-09-18T03:27:44.517Z,101087.13
2018-09-18T03:30:13.290Z,101091.11
2018-09-18T03:32:41.842Z,101094.20
2018-09-18T03:35:10.398Z,101098.19
2018-09-18T03:37:39.133Z,101123.59
2018-09-18T03:40:08.221Z,101120.95
2018-09-18T03:42:36.702Z,101114.89
2018-09-18T03:45:05.534Z,101101.73
2018-09-18T03:47:33.969Z,101093.46
2018-09-18T03:50:02.475Z,101086.00
2018-09-18T03:52:31.469Z,101091.69
2018-09-18T03:54:59.965Z,101086.89
2018-09-18T03:57:28.454Z,101080.70
2018-09-18T03:59:57.198Z,101092.50
2018-09-18T04:02:25.647Z,101094.23
2018-09-18T04:04:54.141Z,101093.31
2018-09-18T04:07:22.946Z,101083.64
2018-09-18T04:09:51.467Z,101087.98
2018-09-18T04:12:19.927Z,101093.66
2018-09-18T04:14:48.705Z,101084.92
2018-09-18T04:17:17.149Z,101092.84
2018-09-18T04:19:46.040Z,101090.26
2018-09-18T04:22:14.849Z,101085.03
2018-09-18T04:24:43.294Z,101090.34
2018-09-18T04:27:11.761Z,101094.31
2018-09-18T04:29:40.510Z,101087.28
2018-09-18T04:32:09.013Z,101083.80
2018-09-18T04:34:37.758Z,101092.15
2018-09-18T04:37:07.440Z,101095.70
2018-09-18T04:39:42.333Z,101096.59
2018-09-18T04:42:14.018Z,101097.09
2018-09-18T04:44:42.481Z,101089.25
2018-09-18T04:47:11.144Z,101083.56
2018-09-18T04:49:39.681Z,101088.39
2018-09-18T04:52:08.940Z,101087.92
2018-09-18T04:54:38.066Z,101085.73
2018-09-18T04:57:06.949Z,101083.06
2018-09-18T04:59:38.273Z,101079.11
2018-09-18T05:02:06.970Z,101089.17
2018-09-18T05:04:35.521Z,101081.20
2018-09-18T05:07:03.952Z,101093.16
2018-09-18T05:09:32.390Z,101089.28
2018-09-18T05:12:01.165Z,101097.32
2018-09-18T05:14:29.581Z,101096.12
2018-09-18T05:16:58.002Z,101083.85
2018-09-18T05:19:26.873Z,101096.80
2018-09-18T05:21:55.692Z,101093.35
2018-09-18T05:24:24.129Z,101089.05
2018-09-18T05:26:52.685Z,101087.84
2018-09-18T05:29:21.155Z,101091.08
2018-09-18T05:31:49.611Z,101090.36
2018-09-18T05:34:18.333Z,101080.89
2018-09-18T05:36:46.773Z,101084.52
2018-09-18T05:39:15.310Z,101090.77
2018-09-18T05:41:43.845Z,101087.81
2018-09-18T05:44:12.282Z,101084.45
2018-09-18T05:46:40.725Z,101067.92
2018-09-18T05:49:09.517Z,101055.34
2018-09-18T05:51:38.095Z,101051.88
2018-09-18T05:54:06.583Z,101045.30
2018-09-18T05:56:35.517Z,101044.00
2018-09-18T05:59:03.999Z,101044.47
2018-09-18T06:01:32.453Z,101044.95
2018-09-18T06:04:02.058Z,101038.06
2018-09-18T06:06:30.817Z,101031.99
2018-09-18T06:08:59.237Z,101029.91
2018-09-18T06:11:28.021Z,101028.73
2018-09-18T06:13:57.005Z,101029.70
2018-09-18T06:16:25.497Z,101026.77
2018-09-18T06:18:54.171Z,101024.67
2018-09-18T06:21:22.629Z,101022.12
2018-09-18T06:23:51.290Z,101021.29
2018-09-18T06:26:20.237Z,101023.06
2018-09-18T06:28:48.920Z,101024.92
2018-09-18T06:31:17.597Z,101019.70
2018-09-18T06:33:46.258Z,101019.77
2018-09-18T06:36:14.694Z,101027.37
2018-09-18T06:38:43.159Z,101026.55
2018-09-18T06:41:11.734Z,101020.41
2018-09-18T06:43:40.182Z,101020.05
2018-09-18T06:46:09.485Z,101009.14
2018-09-18T06:48:38.091Z,101001.32
2018-09-18T06:51:06.687Z,100992.61
2018-09-18T06:53:35.660Z,100985.66
2018-09-18T06:56:04.321Z,100979.16
2018-09-18T06:58:32.833Z,100970.94
2018-09-18T07:01:02.563Z,100967.91
2018-09-18T07:03:31.313Z,100963.08
2018-09-18T07:06:06.137Z,100964.90
2018-09-18T07:08:34.725Z,100961.84
2018-09-18T07:11:03.885Z,100963.66
2018-09-18T07:13:32.337Z,100967.72
2018-09-18T07:16:01.477Z,100969.19
2018-09-18T07:18:29.946Z,100964.45
2018-09-18T07:20:58.411Z,100970.37
2018-09-18T07:23:27.593Z,100972.61
2018-09-18T07:25:56.165Z,100976.16
2018-09-18T07:28:24.650Z,100990.28
2018-09-18T07:30:53.301Z,100988.48
2018-09-18T07:33:21.807Z,100989.31
2018-09-18T07:35:50.254Z,100985.73
2018-09-18T07:38:19.054Z,100977.35
2018-09-18T07:40:47.549Z,100985.28
2018-09-18T07:43:17.173Z,100983.50
2018-09-18T07:45:46.053Z,100976.05
2018-09-18T07:48:14.915Z,100971.69
2018-09-18T07:50:43.354Z,100972.14
2018-09-18T07:53:12.114Z,100963.41
2018-09-18T07:55:40.845Z,100951.59
2018-09-18T07:58:09.313Z,100963.58
2018-09-18T08:00:38.990Z,100930.44
2018-09-18T08:03:07.765Z,100957.54
2018-09-18T08:05:36.736Z,100962.83
2018-09-18T08:08:05.421Z,100951.44
2018-09-18T08:10:34.429Z,100949.73
2018-09-18T08:13:02.886Z,100956.91
2018-09-18T08:15:31.500Z,100947.23
2018-09-18T08:17:59.974Z,100956.55
2018-09-18T08:20:28.402Z,100950.80
2018-09-18T08:22:57.271Z,100956.53
2018-09-18T08:25:26.113Z,100955.66
2018-09-18T08:27:54.643Z,100958.31
2018-09-18T08:30:23.345Z,100958.80
2018-09-18T08:32:51.850Z,100951.36
2018-09-18T08:35:20.308Z,100954.53
2018-09-18T08:37:49.049Z,100963.41
2018-09-18T08:40:17.766Z,100957.69
2018-09-18T08:42:46.190Z,100951.59
2018-09-18T08:45:14.721Z,100948.11
2018-09-18T08:47:43.296Z,100946.04
2018-09-18T08:50:11.775Z,100949.59
2018-09-18T08:52:40.778Z,100952.60
2018-09-18T08:55:09.235Z,100939.77
2018-09-18T08:57:38.404Z,100949.47
2018-09-18T09:00:07.666Z,100943.25
2018-09-18T09:02:36.258Z,100941.44
2018-09-18T09:05:05.278Z,100937.87
2018-09-18T09:07:33.955Z,100655.28
2018-09-18T09:10:02.495Z,100932.16
2018-09-18T09:12:31.073Z,100929.09
2018-09-18T09:14:59.961Z,100926.92
2018-09-18T09:17:28.315Z,100926.49
2018-09-18T09:19:56.774Z,100924.31
2018-09-18T09:22:25.719Z,100900.03
2018-09-18T09:24:54.060Z,100926.20
2018-09-18T09:27:22.489Z,100917.83
2018-09-18T09:29:51.752Z,100924.92
2018-09-18T09:32:20.205Z,100922.30
2018-09-18T09:34:49.626Z,100925.40
2018-09-18T09:37:18.575Z,100922.75
2018-09-18T09:39:47.175Z,100918.36
2018-09-18T09:42:15.656Z,100913.96
2018-09-18T09:44:44.435Z,100905.58
2018-09-18T09:47:13.167Z,100896.78
2018-09-18T09:49:41.623Z,100891.08
2018-09-18T09:52:10.158Z,100891.10
2018-09-18T09:54:38.544Z,100887.54
2018-09-18T09:57:07.227Z,100893.66
2018-09-18T09:59:36.131Z,100898.94
2018-09-18T10:02:09.774Z,100891.35
2018-09-18T10:04:39.314Z,100896.65
2018-09-18T10:07:08.800Z,100895.78
2018-09-18T10:09:37.447Z,100897.10
2018-09-18T10:12:06.122Z,100873.20
2018-09-18T10:14:34.587Z,100902.41
2018-09-18T10:17:03.481Z,100895.34
2018-09-18T10:19:32.476Z,100901.09
2018-09-18T10:22:00.859Z,100901.58
2018-09-18T10:24:29.269Z,100892.17
2018-09-18T10:26:58.067Z,100857.91
2018-09-18T10:29:26.316Z,100875.28
2018-09-18T10:31:55.141Z,100878.95
2018-09-18T10:34:23.787Z,100876.30
2018-09-18T10:36:52.683Z,100856.45
2018-09-18T10:39:21.122Z,100855.59
2018-09-18T10:41:49.813Z,100848.19
2018-09-18T10:44:18.214Z,100853.87
2018-09-18T10:46:46.941Z,100867.14
2018-09-18T10:49:15.468Z,100851.34
2018-09-18T10:51:43.955Z,100848.67
2018-09-18T10:54:12.356Z,100846.85
2018-09-18T10:56:41.230Z,100844.16
2018-09-18T10:59:10.275Z,100847.23
2018-09-18T11:01:38.671Z,100843.14
2018-09-18T11:04:07.620Z,100839.36
2018-09-18T11:06:36.025Z,100834.37
2018-09-18T11:09:06.318Z,100845.92
2018-09-18T11:11:35.253Z,100847.23
2018-09-18T11:14:03.707Z,100846.31
2018-09-18T11:16:32.094Z,100849.59
2018-09-18T11:19:01.256Z,100847.45
2018-09-18T11:21:30.059Z,100852.35
2018-09-18T11:23:58.397Z,100854.60
2018-09-18T11:26:27.319Z,100862.14
2018-09-18T11:28:55.749Z,100854.22
2018-09-18T11:31:24.161Z,100856.08
2018-09-18T11:33:53.369Z,100832.22
2018-09-18T11:36:21.764Z,100856.03
2018-09-18T11:38:50.146Z,100847.09
2018-09-18T11:41:19.087Z,100841.23
2018-09-18T11:43:47.801Z,100832.80
2018-09-18T11:46:16.219Z,100828.67
2018-09-18T11:48:44.986Z,100826.61
2018-09-18T11:51:13.399Z,100824.48
2018-09-18T11:53:41.799Z,100826.29
2018-09-18T11:56:11.514Z,100819.64
2018-09-18T11:58:40.363Z,100821.21
2018-09-18T12:01:08.742Z,100819.00
2018-09-18T12:03:37.617Z,100817.30
2018-09-18T12:06:06.663Z,100805.39
2018-09-18T12:08:35.098Z,100813.91
2018-09-18T12:11:03.935Z,100795.31
2018-09-18T12:13:32.326Z,100778.73
2018-09-18T12:16:00.724Z,100788.08
2018-09-18T12:18:29.560Z,100780.98
2018-09-18T12:20:58.319Z,100779.91
2018-09-18T12:23:27.270Z,100776.91
2018-09-18T12:25:56.144Z,100778.09
2018-09-18T12:28:24.801Z,100760.90
2018-09-18T12:30:53.190Z,100763.86
2018-09-18T12:33:22.106Z,100762.79
2018-09-18T12:35:50.844Z,100761.61
2018-09-18T12:38:19.157Z,100758.94
2018-09-18T12:40:47.838Z,100753.66
2018-09-18T12:43:16.218Z,100754.57
2018-09-18T12:45:44.606Z,100750.02
2018-09-18T12:48:13.279Z,100747.75
2018-09-18T12:50:41.878Z,100742.69
2018-09-18T12:53:11.299Z,100742.59
2018-09-18T12:55:39.908Z,100739.41
2018-09-18T12:58:09.400Z,100740.41
2018-09-18T13:00:37.806Z,100732.08
2018-09-18T13:03:06.312Z,100723.05
2018-09-18T13:05:34.806Z,100716.88
2018-09-18T13:08:03.307Z,100712.34
2018-09-18T13:10:31.776Z,100702.67
2018-09-18T13:13:00.452Z,100708.20
2018-09-18T13:15:28.839Z,100714.04
2018-09-18T13:17:57.391Z,100701.23
2018-09-18T13:20:25.792Z,100698.91
2018-09-18T13:22:54.527Z,100689.09
2018-09-18T13:25:23.254Z,100688.56
2018-09-18T13:27:51.678Z,100682.54
2018-09-18T13:30:20.373Z,100674.73
2018-09-18T13:32:49.147Z,100676.26
2018-09-18T13:35:17.536Z,100687.43
2018-09-18T13:37:46.243Z,100694.48
2018-09-18T13:40:15.391Z,100683.22
2018-09-18T13:42:44.132Z,100673.98
2018-09-18T13:45:12.523Z,100671.95
2018-09-18T13:47:42.184Z,100669.28
2018-09-18T13:50:10.872Z,100666.44
2018-09-18T13:52:39.923Z,100659.23
2018-09-18T13:55:08.703Z,100655.69
2018-09-18T13:57:37.225Z,100658.25
2018-09-18T14:00:06.199Z,100651.18
2018-09-18T14:02:35.397Z,100654.51
2018-09-18T14:05:03.951Z,100648.07
2018-09-18T14:07:32.409Z,100651.64
2018-09-18T14:10:01.591Z,100643.39
2018-09-18T14:12:29.977Z,100640.22
2018-09-18T14:14:58.500Z,100642.91
2018-09-18T14:17:27.194Z,100640.52
2018-09-18T14:19:55.603Z,100645.92
2018-09-18T14:22:24.564Z,100638.00
2018-09-18T14:24:53.819Z,100636.06
2018-09-18T14:27:22.205Z,100634.58
2018-09-18T14:29:50.587Z,100626.00
2018-09-18T14:32:20.021Z,100627.58
2018-09-18T14:34:48.559Z,100628.52
2018-09-18T14:37:17.048Z,100625.33
2018-09-18T14:39:45.765Z,100626.47
2018-09-18T14:42:14.152Z,100628.15
2018-09-18T14:44:42.531Z,100625.56
2018-09-18T14:47:11.402Z,100620.28
2018-09-18T14:49:39.860Z,100626.48
2018-09-18T14:52:09.807Z,100621.39
2018-09-18T14:54:38.398Z,100630.78
2018-09-18T14:57:06.799Z,100625.61
2018-09-18T14:59:35.275Z,100620.44
2018-09-18T15:02:04.076Z,100622.23
2018-09-18T15:04:32.499Z,100608.11
2018-09-18T15:07:01.032Z,100618.69
2018-09-18T15:09:29.877Z,100606.95
2018-09-18T15:11:58.978Z,100604.73
2018-09-18T15:14:27.388Z,100599.80
2018-09-18T15:16:56.947Z,100532.25
2018-09-18T15:19:25.346Z,100603.41
2018-09-18T15:21:53.752Z,100595.19
2018-09-18T15:24:22.626Z,100596.03
2018-09-18T15:26:51.130Z,100604.03
2018-09-18T15:29:19.537Z,100596.91
2018-09-18T15:31:48.037Z,100605.28
2018-09-18T15:34:17.076Z,100593.30
2018-09-18T15:36:45.474Z,100597.86
2018-09-18T15:39:14.140Z,100589.73
2018-09-18T15:41:42.958Z,100594.28
2018-09-18T15:44:11.839Z,100592.55
2018-09-18T15:46:40.882Z,100595.72
2018-09-18T15:49:09.648Z,100567.41
2018-09-18T15:51:38.270Z,100598.01
2018-09-18T15:54:07.189Z,100588.67
2018-09-18T15:56:35.629Z,100596.91
2018-09-18T15:59:04.078Z,100590.31
2018-09-18T16:01:33.111Z,100587.30
2018-09-18T16:04:01.628Z,100587.76
2018-09-18T16:06:30.166Z,100585.16
2018-09-18T16:08:58.747Z,100584.39
2018-09-18T16:11:27.122Z,100580.08
2018-09-18T16:13:55.555Z,100583.52
2018-09-18T16:16:24.059Z,100588.56
2018-09-18T16:18:52.429Z,100589.93
2018-09-18T16:21:20.814Z,100580.00
2018-09-18T16:23:49.350Z,100578.16
2018-09-18T16:26:17.740Z,100585.15
2018-09-18T16:28:46.295Z,100592.55
2018-09-18T16:31:15.021Z,100577.40
2018-09-18T16:33:43.394Z,100558.98
2018-09-18T16:36:11.774Z,100579.89
2018-09-18T16:38:40.451Z,100586.28
2018-09-18T16:41:08.898Z,100588.27
2018-09-18T16:43:37.756Z,100583.59
2018-09-18T16:46:07.244Z,100583.68
2018-09-18T16:48:35.650Z,100581.95
2018-09-18T16:51:04.246Z,100585.13
2018-09-18T16:53:33.170Z,100586.57
2018-09-18T16:56:01.564Z,100584.08
2018-09-18T16:58:30.026Z,100590.02
2018-09-18T17:00:59.221Z,100584.47
2018-09-18T17:03:27.622Z,100585.58
2018-09-18T17:05:56.320Z,100591.02
2018-09-18T17:08:24.858Z,100589.37
2018-09-18T17:10:53.426Z,100597.95
2018-09-18T17:13:21.893Z,100570.37
2018-09-18T17:15:50.726Z,100594.23
2018-09-18T17:18:19.178Z,100598.73
2018-09-18T17:20:47.826Z,100600.17
2018-09-18T17:23:16.327Z,100595.38
2018-09-18T17:25:45.271Z,100595.46
2018-09-18T17:28:13.740Z,100594.20
2018-09-18T17:30:43.449Z,100596.52
2018-09-18T17:33:11.791Z,100593.94
2018-09-18T17:35:40.245Z,100597.06
2018-09-18T17:38:09.181Z,100597.98
2018-09-18T17:40:37.584Z,100600.28
2018-09-18T17:43:05.980Z,100595.93
2018-09-18T17:45:34.651Z,100588.91
2018-09-18T17:48:03.059Z,100591.19
2018-09-18T17:50:31.447Z,100584.59
2018-09-18T17:53:00.144Z,100585.55
2018-09-18T17:55:28.543Z,100589.16
2018-09-18T17:57:56.962Z,100586.11
2018-09-18T18:00:25.794Z,100586.65
2018-09-18T18:02:54.233Z,100588.06
2018-09-18T18:05:22.656Z,100595.19
2018-09-18T18:07:51.134Z,100592.59
2018-09-18T18:10:19.540Z,100592.61
2018-09-18T18:12:47.915Z,100599.27
2018-09-18T18:15:16.410Z,100594.88
2018-09-18T18:17:44.825Z,100590.94
2018-09-18T18:20:13.287Z,100592.75
2018-09-18T18:22:42.585Z,100594.53
2018-09-18T18:25:11.528Z,100592.80
2018-09-18T18:27:40.327Z,100590.63
2018-09-18T18:30:08.824Z,100588.91
2018-09-18T18:32:37.306Z,100581.45
2018-09-18T18:35:05.867Z,100583.66
2018-09-18T18:37:34.500Z,100582.80
2018-09-18T18:40:02.902Z,100576.19
2018-09-18T18:42:31.383Z,100581.08
2018-09-18T18:45:00.107Z,100576.21
2018-09-18T18:47:28.748Z,100580.64
2018-09-18T18:49:57.186Z,100575.36
2018-09-18T18:52:25.710Z,100574.92
2018-09-18T18:54:54.108Z,100569.63
2018-09-18T18:57:22.496Z,100566.98
2018-09-18T18:59:50.998Z,100566.56
2018-09-18T19:02:19.550Z,100569.23
2018-09-18T19:04:47.933Z,100569.70
2018-09-18T19:07:16.730Z,100571.05
2018-09-18T19:09:45.149Z,100567.95
2018-09-18T19:12:13.545Z,100561.77
2018-09-18T19:14:42.927Z,100552.95
2018-09-18T19:17:11.803Z,100555.59
2018-09-18T19:19:40.225Z,100551.17
2018-09-18T19:22:09.067Z,100548.09
2018-09-18T19:24:37.451Z,100548.55
2018-09-18T19:27:05.849Z,100542.83
2018-09-18T19:29:34.351Z,100545.91
2018-09-18T19:32:02.831Z,100538.42
2018-09-18T19:34:31.330Z,100537.55
2018-09-18T19:37:00.336Z,100533.56
2018-09-18T19:39:28.710Z,100525.61
2018-09-18T19:41:57.119Z,100530.49
2018-09-18T19:44:25.607Z,100524.77
2018-09-18T19:46:54.010Z,100528.31
2018-09-18T19:49:28.870Z,100524.81
2018-09-18T19:51:57.374Z,100522.19
2018-09-18T19:54:25.723Z,100525.73
2018-09-18T19:56:54.325Z,100518.68
2018-09-18T19:59:22.847Z,100518.24
2018-09-18T20:01:51.208Z,100520.47
2018-09-18T20:04:19.739Z,100513.88
2018-09-18T20:06:48.130Z,100517.42
2018-09-18T20:09:16.907Z,100514.33
2018-09-18T20:11:45.544Z,100512.56
2018-09-18T20:14:13.938Z,100511.69
2018-09-18T20:16:43.145Z,100507.73
2018-09-18T20:19:11.654Z,100505.54
2018-09-18T20:21:40.637Z,100503.34
2018-09-18T20:24:09.027Z,100498.05
2018-09-18T20:26:37.627Z,100500.26
2018-09-18T20:29:06.151Z,100500.70
2018-09-18T20:31:34.532Z,100503.36
2018-09-18T20:34:03.378Z,100495.85
2018-09-18T20:36:32.015Z,100502.92
2018-09-18T20:39:00.491Z,100497.63
2018-09-18T20:41:29.578Z,100493.67
2018-09-18T20:44:04.687Z,100488.37
2018-09-18T20:46:33.575Z,100495.00
2018-09-18T20:49:01.978Z,100483.08
2018-09-18T20:51:30.692Z,100488.83
2018-09-18T20:53:59.228Z,100480.90
2018-09-18T20:56:27.747Z,100486.64
2018-09-18T20:58:56.220Z,100484.45
2018-09-18T21:01:25.173Z,100486.66
2018-09-18T21:03:53.620Z,100489.77
2018-09-18T21:06:22.077Z,100477.84
2018-09-18T21:08:50.641Z,100473.88
2018-09-18T21:11:19.118Z,100476.08
2018-09-18T21:13:47.557Z,100479.16
2018-09-18T21:16:16.410Z,100476.95
2018-09-18T21:18:44.867Z,100473.41
2018-09-18T21:21:13.297Z,100475.15
2018-09-18T21:23:41.945Z,100468.95
2018-09-18T21:26:13.554Z,100469.82
2018-09-18T21:28:43.556Z,100464.52
2018-09-18T21:31:12.064Z,100467.99
2018-09-18T21:33:41.121Z,100466.63
2018-09-18T21:36:10.805Z,100459.52
2018-09-18T21:38:40.225Z,100461.21
2018-09-18T21:41:08.665Z,100465.59
2018-09-18T21:43:37.515Z,100465.50
2018-09-18T21:46:05.910Z,100462.30
2018-09-18T21:48:34.361Z,100446.65
2018-09-18T21:51:03.106Z,100452.39
2018-09-18T21:53:31.698Z,100448.39
2018-09-18T21:56:00.141Z,100444.81
2018-09-18T21:58:28.685Z,100439.41
2018-09-18T22:00:57.205Z,100445.09
2018-09-18T22:03:25.799Z,100445.88
2018-09-18T22:05:54.730Z,100440.05
2018-09-18T22:08:23.681Z,100440.05
2018-09-18T22:10:52.175Z,100425.86
2018-09-18T22:13:20.739Z,100429.74
2018-09-18T22:15:49.173Z,100428.77
2018-09-18T22:18:17.616Z,100431.39
2018-09-18T22:20:46.407Z,100426.48
2018-09-18T22:23:14.829Z,100432.59
2018-09-18T22:25:43.325Z,100434.39
2018-09-18T22:28:12.782Z,100425.48
2018-09-18T22:30:41.249Z,100434.33
2018-09-18T22:33:09.675Z,100425.82
2018-09-18T22:35:38.436Z,100417.87
2018-09-18T22:38:07.173Z,100424.52
2018-09-18T22:40:36.133Z,100423.14
2018-09-18T22:43:04.933Z,100425.84
2018-09-18T22:45:33.360Z,100410.78
2018-09-18T22:48:02.081Z,100420.55
2018-09-18T22:50:30.974Z,100414.31
2018-09-18T22:53:00.079Z,100405.48
2018-09-18T22:55:28.805Z,100411.27
2018-09-18T22:57:57.617Z,100409.95
2018-09-18T23:00:26.103Z,100421.97
2018-09-18T23:02:55.206Z,100400.33
2018-09-18T23:05:24.074Z,100407.88
2018-09-18T23:07:52.505Z,100405.19
2018-09-18T23:10:21.452Z,100404.69
2018-09-18T23:12:50.337Z,100391.30
2018-09-18T23:15:18.866Z,100402.32
2018-09-18T23:17:47.314Z,100397.47
2018-09-18T23:20:16.222Z,100386.48
2018-09-18T23:22:44.701Z,100384.70
2018-09-18T23:25:13.214Z,100378.57
2018-09-18T23:27:42.571Z,100391.02
2018-09-18T23:30:11.690Z,100384.86
2018-09-18T23:32:40.115Z,100386.27
2018-09-18T23:35:08.920Z,100377.91
2018-09-18T23:37:37.369Z,100385.91
2018-09-18T23:40:05.848Z,100375.77
2018-09-18T23:42:35.122Z,100377.16
2018-09-18T23:45:03.593Z,100379.84
2018-09-18T23:47:32.029Z,100375.92
2018-09-18T23:50:00.624Z,100372.00
2018-09-18T23:52:29.106Z,100373.38
2018-09-18T23:54:57.544Z,100370.34
2018-09-18T23:57:26.423Z,100366.40
2018-09-18T23:59:55.173Z,100365.59
